Suehiro Maru No.8 — JK5423 — position and weather

sailwx.info

Track history (hours):
 
Tides and Currents Weather Stations Pressure Air Temp Water Temp Dewpoint Dewpoint Depression Visibility Wind Speed Wind Dir Waves Ship Positions

Suehiro Maru No.8

Last reported at 2016-May-25 12:30 UTC. Time now 2016-May-31 10:08 UTC.
Position N 34°07' E 134°46'.

Length 88 m; draft 3.4 m.

Type: Cargo ship. MMSI: 431400446.

Date/timePositionNaut miles runAvg speedWind from/ knotsBaromVisibWave heightAir tempDewpointWater temp
2016-May-25 12:30N 34°07' E 134°46'22710.3
2016-May-24 14:33N 34°50' E 139°16'1111.2
2016-May-24 13:33N 34°57' E 139°27'1211.3
2016-May-24 12:29N 35°05' E 139°38'1111.3
2016-May-24 11:33N 35°13' E 139°46'1111.1
2016-May-24 10:33N 35°24' E 139°43'1110.7
2016-May-24 09:33N 35°32' E 139°51'6 5.6
2016-May-24 08:33N 35°37' E 139°49'0 0.0
2016-May-24 07:33N 35°37' E 139°49'0 0.0
2016-May-24 06:33N 35°37' E 139°49'0 0.0
2016-May-24 05:33N 35°37' E 139°49'0 0.0
2016-May-24 04:33N 35°37' E 139°49'0 0.0
2016-May-24 03:33N 35°37' E 139°49'0 0.0
2016-May-24 02:33N 35°37' E 139°49'0 0.0
2016-May-24 01:33N 35°37' E 139°49'0 0.0
2016-May-24 00:33N 35°37' E 139°49'0 0.0
2016-May-23 23:33N 35°37' E 139°49'0 0.0
2016-May-23 22:33N 35°37' E 139°49'3 2.7
2016-May-23 21:33N 35°35' E 139°51'1 1.3
2016-May-23 20:33N 35°35' E 139°52'2 2.4
2016-May-23 19:33N 35°33' E 139°52'1312.6
2016-May-23 18:33N 35°21' E 139°45'1212.3
2016-May-23 17:33N 35°09' E 139°46'1212.4
2016-May-23 16:33N 34°59' E 139°37'1413.7
2016-May-23 15:33N 34°51' E 139°23'1413.5
2016-May-23 14:32N 34°43' E 139°10'  
2016-May-20 20:29N 34°00' E 135°02'1112.2
2016-May-20 19:34N 34°12' E 135°04'4 3.7
2016-May-20 18:33N 34°15' E 135°07'0 0.0
2016-May-20 17:34N 34°15' E 135°07'0 0.0
2016-May-20 16:34N 34°15' E 135°07'0 0.0
2016-May-20 15:34N 34°15' E 135°07'0 0.0
2016-May-20 14:33N 34°15' E 135°07'0 0.0
2016-May-20 13:34N 34°15' E 135°07'0 0.0
2016-May-20 12:30N 34°15' E 135°07'0 0.0
2016-May-20 11:34N 34°15' E 135°07'0 0.0
2016-May-20 10:34N 34°15' E 135°07'0 0.0
2016-May-20 09:34N 34°15' E 135°07'0 0.2
2016-May-20 08:34N 34°14' E 135°07'0 0.5
2016-May-20 07:34N 34°15' E 135°07'0 0.0
2016-May-20 06:34N 34°15' E 135°07'0 0.0
2016-May-20 05:34N 34°15' E 135°07'0 0.0
2016-May-20 04:34N 34°15' E 135°07'0 0.0
2016-May-20 03:34N 34°15' E 135°07'0 0.0
2016-May-20 02:34N 34°15' E 135°07'0 0.0
2016-May-20 01:34N 34°15' E 135°07'0 0.0
2016-May-20 00:34N 34°15' E 135°07'0 0.1
2016-May-19 23:34N 34°15' E 135°06'6 5.5
2016-May-19 22:34N 34°10' E 135°03'9 0.2
2016-May-17 20:10N 34°00' E 135°02'712.2
2016-May-17 19:33N 34°08' E 135°03'8 7.7
2016-May-17 18:33N 34°15' E 135°07'0 0.0
2016-May-17 17:33N 34°15' E 135°07'0 0.0
2016-May-17 16:33N 34°15' E 135°07'0 0.0
2016-May-17 15:33N 34°15' E 135°07'0 0.0
2016-May-17 14:33N 34°15' E 135°07'0 0.0
2016-May-17 13:33N 34°15' E 135°07'0 0.0
2016-May-17 12:33N 34°15' E 135°07'0 0.0
2016-May-17 11:33N 34°15' E 135°07'0 0.0
2016-May-17 10:33N 34°15' E 135°07'0 0.0
2016-May-17 09:33N 34°15' E 135°07'0 0.0
2016-May-17 08:33N 34°15' E 135°07'0 0.4
2016-May-17 07:33N 34°15' E 135°06'0 0.1
2016-May-17 06:33N 34°15' E 135°06'0 0.0
2016-May-17 05:33N 34°15' E 135°06'10 9.2
2016-May-17 04:30N 34°24' E 135°03'1213.3
2016-May-17 03:33N 34°36' E 135°02'1514.6
2016-May-17 02:32N 34°41' E 134°45'  
Track history (hours):
 
Tides and Currents Weather Stations Pressure Air Temp Water Temp Dewpoint Dewpoint Depression Visibility Wind Speed Wind Dir Waves Ship Positions

Suehiro Maru No.8

Last reported at 2016-May-25 12:30 UTC. Time now 2016-May-31 10:08 UTC.
Position N 34°07' E 134°46'.

Length 88 m; draft 3.4 m.

Type: Cargo ship. MMSI: 431400446.

Date/timePositionNaut miles runAvg speedWind from/ knotsBaromVisibWave heightAir tempDewpointWater temp
2016-May-25 12:30N 34°07' E 134°46'22710.3
2016-May-24 14:33N 34°50' E 139°16'1111.2
2016-May-24 13:33N 34°57' E 139°27'1211.3
2016-May-24 12:29N 35°05' E 139°38'1111.3
2016-May-24 11:33N 35°13' E 139°46'1111.1
2016-May-24 10:33N 35°24' E 139°43'1110.7
2016-May-24 09:33N 35°32' E 139°51'6 5.6
2016-May-24 08:33N 35°37' E 139°49'0 0.0
2016-May-24 07:33N 35°37' E 139°49'0 0.0
2016-May-24 06:33N 35°37' E 139°49'0 0.0
2016-May-24 05:33N 35°37' E 139°49'0 0.0
2016-May-24 04:33N 35°37' E 139°49'0 0.0
2016-May-24 03:33N 35°37' E 139°49'0 0.0
2016-May-24 02:33N 35°37' E 139°49'0 0.0
2016-May-24 01:33N 35°37' E 139°49'0 0.0
2016-May-24 00:33N 35°37' E 139°49'0 0.0
2016-May-23 23:33N 35°37' E 139°49'0 0.0
2016-May-23 22:33N 35°37' E 139°49'3 2.7
2016-May-23 21:33N 35°35' E 139°51'1 1.3
2016-May-23 20:33N 35°35' E 139°52'2 2.4
2016-May-23 19:33N 35°33' E 139°52'1312.6
2016-May-23 18:33N 35°21' E 139°45'1212.3
2016-May-23 17:33N 35°09' E 139°46'1212.4
2016-May-23 16:33N 34°59' E 139°37'1413.7
2016-May-23 15:33N 34°51' E 139°23'1413.5
2016-May-23 14:32N 34°43' E 139°10'  
2016-May-20 20:29N 34°00' E 135°02'1112.2
2016-May-20 19:34N 34°12' E 135°04'4 3.7
2016-May-20 18:33N 34°15' E 135°07'0 0.0
2016-May-20 17:34N 34°15' E 135°07'0 0.0
2016-May-20 16:34N 34°15' E 135°07'0 0.0
2016-May-20 15:34N 34°15' E 135°07'0 0.0
2016-May-20 14:33N 34°15' E 135°07'0 0.0
2016-May-20 13:34N 34°15' E 135°07'0 0.0
2016-May-20 12:30N 34°15' E 135°07'0 0.0
2016-May-20 11:34N 34°15' E 135°07'0 0.0
2016-May-20 10:34N 34°15' E 135°07'0 0.0
2016-May-20 09:34N 34°15' E 135°07'0 0.2
2016-May-20 08:34N 34°14' E 135°07'0 0.5
2016-May-20 07:34N 34°15' E 135°07'0 0.0
2016-May-20 06:34N 34°15' E 135°07'0 0.0
2016-May-20 05:34N 34°15' E 135°07'0 0.0
2016-May-20 04:34N 34°15' E 135°07'0 0.0
2016-May-20 03:34N 34°15' E 135°07'0 0.0
2016-May-20 02:34N 34°15' E 135°07'0 0.0
2016-May-20 01:34N 34°15' E 135°07'0 0.0
2016-May-20 00:34N 34°15' E 135°07'0 0.1
2016-May-19 23:34N 34°15' E 135°06'6 5.5
2016-May-19 22:34N 34°10' E 135°03'9 0.2
2016-May-17 20:10N 34°00' E 135°02'712.2
2016-May-17 19:33N 34°08' E 135°03'8 7.7
2016-May-17 18:33N 34°15' E 135°07'0 0.0
2016-May-17 17:33N 34°15' E 135°07'0 0.0
2016-May-17 16:33N 34°15' E 135°07'0 0.0
2016-May-17 15:33N 34°15' E 135°07'0 0.0
2016-May-17 14:33N 34°15' E 135°07'0 0.0
2016-May-17 13:33N 34°15' E 135°07'0 0.0
2016-May-17 12:33N 34°15' E 135°07'0 0.0
2016-May-17 11:33N 34°15' E 135°07'0 0.0
2016-May-17 10:33N 34°15' E 135°07'0 0.0
2016-May-17 09:33N 34°15' E 135°07'0 0.0
2016-May-17 08:33N 34°15' E 135°07'0 0.4
2016-May-17 07:33N 34°15' E 135°06'0 0.1
2016-May-17 06:33N 34°15' E 135°06'0 0.0
2016-May-17 05:33N 34°15' E 135°06'10 9.2
2016-May-17 04:30N 34°24' E 135°03'1213.3
2016-May-17 03:33N 34°36' E 135°02'1514.6
2016-May-17 02:32N 34°41' E 134°45'  

Dump ship's entire track history